Titania — 2DPT8 — position and weather

sailwx.info

Track history (hours):
 
Tides and Currents Weather Stations Pressure Air Temp Water Temp Dewpoint Dewpoint Depression Visibility Wind Speed Wind Dir Waves Ship Positions

Titania

Last reported at 2018-May-25 13:34 UTC. Time now 2018-May-25 14:39 UTC.
Position N 43°33' E 007°07'.

Length 71 m; draft 3.8 m.

Type: Pleasure craft. MMSI: 235081036.

Date/timePositionNaut miles runAvg speedWind from/ knotsBaromVisibWave heightAir tempDewpointWater temp
2018-May-25 13:34N 43°33' E 007°07'0 0.0
2018-May-25 13:22N 43°33' E 007°07'0 0.0
2018-May-25 09:58N 43°33' E 007°07'0 0.0
2018-May-25 07:46N 43°33' E 007°07'0 0.0
2018-May-25 07:01N 43°33' E 007°07'0 0.1
2018-May-25 06:58N 43°33' E 007°07'0 0.0
2018-May-25 06:28N 43°33' E 007°07'0 0.0
2018-May-25 05:46N 43°33' E 007°07'0 0.0
2018-May-25 05:28N 43°33' E 007°07'0 0.0
2018-May-25 04:49N 43°33' E 007°07'0 0.0
2018-May-25 04:19N 43°33' E 007°07'0 0.0
2018-May-25 03:31N 43°33' E 007°07'0 0.0
2018-May-25 03:16N 43°33' E 007°07'0 0.0
2018-May-25 02:52N 43°33' E 007°07'0 0.0
2018-May-25 02:19N 43°33' E 007°07'0 0.0
2018-May-24 20:59N 43°33' E 007°07'6 6.8
2018-May-24 20:10N 43°35' E 007°14'311.7
2018-May-24 19:55N 43°36' E 007°18'2411.4
2018-May-24 17:49N 43°48' E 007°47'1 2.4
2018-May-24 17:16N 43°49' E 007°48'0 1.2
2018-May-24 17:00N 43°49' E 007°47'22 2.7
2018-May-24 08:54N 43°39' E 007°20'611.4
2018-May-24 08:21N 43°36' E 007°12'3 0.3
2018-May-23 23:16N 43°35' E 007°08'0 0.0
2018-May-23 21:07N 43°35' E 007°08'0 0.0
2018-May-23 20:55N 43°35' E 007°08'0 0.0
2018-May-23 20:07N 43°35' E 007°08'0 0.0
2018-May-23 19:52N 43°35' E 007°08'0 0.0
2018-May-23 19:10N 43°35' E 007°08'0 0.0
2018-May-23 18:58N 43°35' E 007°08'0 0.0
2018-May-23 18:28N 43°35' E 007°08'0 0.0
2018-May-23 17:55N 43°35' E 007°08'0 0.0
2018-May-23 16:40N 43°35' E 007°08'0 0.1
2018-May-23 16:28N 43°35' E 007°08'0 0.0
2018-May-23 15:58N 43°35' E 007°08'0 0.0
2018-May-23 15:28N 43°35' E 007°08'0 0.0
2018-May-23 14:31N 43°35' E 007°08'0 0.2
2018-May-23 14:28N 43°35' E 007°08'0 0.0
2018-May-23 13:58N 43°35' E 007°08'0 0.0
2018-May-23 13:19N 43°35' E 007°08'0 0.0
2018-May-23 12:46N 43°35' E 007°08'0 0.0
2018-May-23 12:19N 43°35' E 007°08'0 0.0
2018-May-23 11:49N 43°35' E 007°08'0 0.0
2018-May-23 11:19N 43°35' E 007°08'0 0.0
2018-May-23 10:46N 43°35' E 007°08'0 0.0
2018-May-23 10:22N 43°35' E 007°08'0 0.0
2018-May-23 09:52N 43°35' E 007°08'0 0.0
2018-May-23 09:22N 43°35' E 007°08'0 0.0
2018-May-22 17:10N 43°35' E 007°08'0 0.0
2018-May-22 16:52N 43°35' E 007°08'0 0.0
2018-May-22 16:25N 43°35' E 007°08'0 0.0
2018-May-22 15:55N 43°35' E 007°08'0 0.0
2018-May-22 15:10N 43°35' E 007°08'0 0.0
2018-May-22 14:43N 43°35' E 007°08'0 0.0
2018-May-22 14:25N 43°35' E 007°08'0 0.0
2018-May-22 13:55N 43°35' E 007°08'0 0.0
2018-May-22 12:16N 43°35' E 007°08'0 0.0
2018-May-22 11:58N 43°35' E 007°08'0 0.0
2018-May-22 11:25N 43°35' E 007°08'0 0.0
2018-May-22 10:16N 43°35' E 007°08'0 0.1
2018-May-22 09:49N 43°35' E 007°08'1 2.9
2018-May-22 09:30N 43°35' E 007°09'5 9.9
2018-May-22 09:00N 43°30' E 007°08'611.7
2018-May-22 08:30N 43°25' E 007°03'24111.2
2018-May-21 10:58N 41°25' E 002°20'4 8.5
2018-May-21 10:26N 41°25' E 002°14'0 0.1
2018-May-21 08:07N 41°25' E 002°15'0 0.3
2018-May-21 08:00N 41°25' E 002°15'  
Track history (hours):
 
Tides and Currents Weather Stations Pressure Air Temp Water Temp Dewpoint Dewpoint Depression Visibility Wind Speed Wind Dir Waves Ship Positions

Titania

Last reported at 2018-May-25 13:34 UTC. Time now 2018-May-25 14:39 UTC.
Position N 43°33' E 007°07'.

Length 71 m; draft 3.8 m.

Type: Pleasure craft. MMSI: 235081036.

Date/timePositionNaut miles runAvg speedWind from/ knotsBaromVisibWave heightAir tempDewpointWater temp
2018-May-25 13:34N 43°33' E 007°07'0 0.0
2018-May-25 13:22N 43°33' E 007°07'0 0.0
2018-May-25 09:58N 43°33' E 007°07'0 0.0
2018-May-25 07:46N 43°33' E 007°07'0 0.0
2018-May-25 07:01N 43°33' E 007°07'0 0.1
2018-May-25 06:58N 43°33' E 007°07'0 0.0
2018-May-25 06:28N 43°33' E 007°07'0 0.0
2018-May-25 05:46N 43°33' E 007°07'0 0.0
2018-May-25 05:28N 43°33' E 007°07'0 0.0
2018-May-25 04:49N 43°33' E 007°07'0 0.0
2018-May-25 04:19N 43°33' E 007°07'0 0.0
2018-May-25 03:31N 43°33' E 007°07'0 0.0
2018-May-25 03:16N 43°33' E 007°07'0 0.0
2018-May-25 02:52N 43°33' E 007°07'0 0.0
2018-May-25 02:19N 43°33' E 007°07'0 0.0
2018-May-24 20:59N 43°33' E 007°07'6 6.8
2018-May-24 20:10N 43°35' E 007°14'311.7
2018-May-24 19:55N 43°36' E 007°18'2411.4
2018-May-24 17:49N 43°48' E 007°47'1 2.4
2018-May-24 17:16N 43°49' E 007°48'0 1.2
2018-May-24 17:00N 43°49' E 007°47'22 2.7
2018-May-24 08:54N 43°39' E 007°20'611.4
2018-May-24 08:21N 43°36' E 007°12'3 0.3
2018-May-23 23:16N 43°35' E 007°08'0 0.0
2018-May-23 21:07N 43°35' E 007°08'0 0.0
2018-May-23 20:55N 43°35' E 007°08'0 0.0
2018-May-23 20:07N 43°35' E 007°08'0 0.0
2018-May-23 19:52N 43°35' E 007°08'0 0.0
2018-May-23 19:10N 43°35' E 007°08'0 0.0
2018-May-23 18:58N 43°35' E 007°08'0 0.0
2018-May-23 18:28N 43°35' E 007°08'0 0.0
2018-May-23 17:55N 43°35' E 007°08'0 0.0
2018-May-23 16:40N 43°35' E 007°08'0 0.1
2018-May-23 16:28N 43°35' E 007°08'0 0.0
2018-May-23 15:58N 43°35' E 007°08'0 0.0
2018-May-23 15:28N 43°35' E 007°08'0 0.0
2018-May-23 14:31N 43°35' E 007°08'0 0.2
2018-May-23 14:28N 43°35' E 007°08'0 0.0
2018-May-23 13:58N 43°35' E 007°08'0 0.0
2018-May-23 13:19N 43°35' E 007°08'0 0.0
2018-May-23 12:46N 43°35' E 007°08'0 0.0
2018-May-23 12:19N 43°35' E 007°08'0 0.0
2018-May-23 11:49N 43°35' E 007°08'0 0.0
2018-May-23 11:19N 43°35' E 007°08'0 0.0
2018-May-23 10:46N 43°35' E 007°08'0 0.0
2018-May-23 10:22N 43°35' E 007°08'0 0.0
2018-May-23 09:52N 43°35' E 007°08'0 0.0
2018-May-23 09:22N 43°35' E 007°08'0 0.0
2018-May-22 17:10N 43°35' E 007°08'0 0.0
2018-May-22 16:52N 43°35' E 007°08'0 0.0
2018-May-22 16:25N 43°35' E 007°08'0 0.0
2018-May-22 15:55N 43°35' E 007°08'0 0.0
2018-May-22 15:10N 43°35' E 007°08'0 0.0
2018-May-22 14:43N 43°35' E 007°08'0 0.0
2018-May-22 14:25N 43°35' E 007°08'0 0.0
2018-May-22 13:55N 43°35' E 007°08'0 0.0
2018-May-22 12:16N 43°35' E 007°08'0 0.0
2018-May-22 11:58N 43°35' E 007°08'0 0.0
2018-May-22 11:25N 43°35' E 007°08'0 0.0
2018-May-22 10:16N 43°35' E 007°08'0 0.1
2018-May-22 09:49N 43°35' E 007°08'1 2.9
2018-May-22 09:30N 43°35' E 007°09'5 9.9
2018-May-22 09:00N 43°30' E 007°08'611.7
2018-May-22 08:30N 43°25' E 007°03'24111.2
2018-May-21 10:58N 41°25' E 002°20'4 8.5
2018-May-21 10:26N 41°25' E 002°14'0 0.1
2018-May-21 08:07N 41°25' E 002°15'0 0.3
2018-May-21 08:00N 41°25' E 002°15'  

Dump ship's entire track history